createdAt,value
2018-08-24T00:01:48.478Z,97011.94
2018-08-24T00:04:16.113Z,97006.88
2018-08-24T00:06:43.787Z,97004.16
2018-08-24T00:09:13.274Z,97002.02
2018-08-24T00:11:41.249Z,97001.45
2018-08-24T00:14:09.508Z,96997.95
2018-08-24T00:16:39.146Z,96990.61
2018-08-24T00:19:10.792Z,96995.80
2018-08-24T00:21:38.853Z,96989.25
2018-08-24T00:24:06.525Z,96982.24
2018-08-24T00:26:34.206Z,96986.11
2018-08-24T00:29:01.883Z,96991.17
2018-08-24T00:31:29.510Z,96988.03
2018-08-24T00:33:57.141Z,96988.27
2018-08-24T00:36:26.263Z,96988.03
2018-08-24T00:38:54.234Z,96980.48
2018-08-24T00:41:21.888Z,96981.05
2018-08-24T00:43:49.688Z,96985.68
2018-08-24T00:46:17.362Z,96987.04
2018-08-24T00:48:45.401Z,96984.92
2018-08-24T00:51:13.017Z,96992.46
2018-08-24T00:53:41.082Z,96993.05
2018-08-24T00:56:09.513Z,96988.19
2018-08-24T00:58:37.977Z,96983.33
2018-08-24T01:01:05.975Z,96986.64
2018-08-24T01:03:33.650Z,96985.28
2018-08-24T01:06:01.307Z,96986.64
2018-08-24T01:08:28.945Z,96985.28
2018-08-24T01:10:56.587Z,96988.56
2018-08-24T01:13:24.237Z,96996.69
2018-08-24T01:15:56.162Z,96995.90
2018-08-24T01:18:54.647Z,96984.85
2018-08-24T01:21:22.273Z,96981.58
2018-08-24T01:23:50.010Z,96983.50
2018-08-24T01:26:23.114Z,96982.70
2018-08-24T01:28:51.233Z,96988.13
2018-08-24T01:31:18.989Z,96983.30
2018-08-24T01:33:46.628Z,96983.06
2018-08-24T01:36:14.262Z,96980.36
2018-08-24T01:38:41.910Z,96981.71
2018-08-24T01:41:09.564Z,96982.51
2018-08-24T01:43:37.202Z,96985.78
2018-08-24T01:46:10.879Z,96983.66
2018-08-24T01:48:39.046Z,96980.72
2018-08-24T01:51:06.780Z,96983.66
2018-08-24T01:53:34.487Z,96978.61
2018-08-24T01:56:02.129Z,96974.53
2018-08-24T01:58:29.770Z,96969.11
2018-08-24T02:00:57.429Z,96971.03
2018-08-24T02:03:25.083Z,96971.59
2018-08-24T02:05:57.413Z,96970.23
2018-08-24T02:08:25.088Z,96966.17
2018-08-24T02:10:52.756Z,96979.73
2018-08-24T02:13:25.752Z,96977.98
2018-08-24T02:15:53.471Z,96980.09
2018-08-24T02:18:26.660Z,96983.39
2018-08-24T02:20:59.606Z,96979.33
2018-08-24T02:23:27.288Z,96983.39
2018-08-24T02:25:54.916Z,96975.83
2018-08-24T02:28:22.563Z,96970.97
2018-08-24T02:30:50.204Z,96975.03
2018-08-24T02:33:17.854Z,96977.75
2018-08-24T02:35:45.493Z,96975.03
2018-08-24T02:38:13.117Z,96969.41
2018-08-24T02:40:40.842Z,96969.41
2018-08-24T02:43:08.511Z,96974.04
2018-08-24T02:45:36.137Z,96970.56
2018-08-24T02:48:03.781Z,96961.64
2018-08-24T02:50:31.441Z,96964.35
2018-08-24T02:52:59.074Z,96968.42
2018-08-24T02:55:26.722Z,96970.77
2018-08-24T02:57:54.345Z,96968.22
2018-08-24T03:00:22.002Z,96971.70
2018-08-24T03:02:49.659Z,96973.05
2018-08-24T03:05:17.400Z,96962.80
2018-08-24T03:07:44.949Z,96964.16
2018-08-24T03:10:12.586Z,96960.09
2018-08-24T03:12:40.320Z,96955.23
2018-08-24T03:15:07.958Z,96958.30
2018-08-24T03:17:40.774Z,96957.74
2018-08-24T03:20:08.438Z,96957.15
2018-08-24T03:22:36.068Z,96954.80
2018-08-24T03:25:03.711Z,96959.66
2018-08-24T03:27:31.351Z,96959.86
2018-08-24T03:29:58.987Z,96956.16
2018-08-24T03:32:26.636Z,96954.23
2018-08-24T03:34:54.319Z,96956.39
2018-08-24T03:37:21.982Z,96958.30
2018-08-24T03:39:49.619Z,96959.45
2018-08-24T03:42:17.794Z,96955.95
2018-08-24T03:44:45.446Z,96961.38
2018-08-24T03:47:13.066Z,96966.00
2018-08-24T03:49:40.703Z,96966.59
2018-08-24T03:52:08.460Z,96974.14
2018-08-24T03:54:36.095Z,96987.12
2018-08-24T03:57:03.718Z,96993.70
2018-08-24T03:59:31.369Z,96992.34
2018-08-24T04:01:59.026Z,97001.61
2018-08-24T04:04:26.659Z,96998.53
2018-08-24T04:06:54.282Z,96994.83
2018-08-24T04:09:21.930Z,96992.51
2018-08-24T04:11:49.577Z,96993.86
2018-08-24T04:14:17.218Z,96991.72
2018-08-24T04:16:50.297Z,96997.70
2018-08-24T04:19:28.933Z,97002.36
2018-08-24T04:21:57.084Z,97004.48
2018-08-24T04:24:24.705Z,96998.30
2018-08-24T04:26:53.144Z,96995.35
2018-08-24T04:29:20.801Z,97004.28
2018-08-24T04:31:48.429Z,97005.63
2018-08-24T04:34:16.082Z,97004.28
2018-08-24T04:36:43.715Z,97007.19
2018-08-24T04:39:12.564Z,97010.49
2018-08-24T04:41:40.751Z,97018.39
2018-08-24T04:44:08.524Z,97000.32
2018-08-24T04:46:36.389Z,97021.10
2018-08-24T04:49:04.237Z,97018.19
2018-08-24T04:51:32.206Z,97018.19
2018-08-24T04:54:00.031Z,97023.25
2018-08-24T04:56:28.281Z,97019.55
2018-08-24T04:58:55.959Z,97018.75
2018-08-24T05:01:23.593Z,97020.11
2018-08-24T05:03:51.266Z,97020.11
2018-08-24T05:06:19.134Z,97023.41
2018-08-24T05:08:46.748Z,97020.11
2018-08-24T05:11:14.374Z,97019.91
2018-08-24T05:13:42.204Z,97018.55
2018-08-24T05:16:09.871Z,97015.84
2018-08-24T05:18:37.521Z,97017.76
2018-08-24T05:21:05.397Z,97022.42
2018-08-24T05:23:33.145Z,97017.56
2018-08-24T05:26:00.796Z,97017.56
2018-08-24T05:28:28.439Z,97021.83
2018-08-24T05:30:56.157Z,97018.91
2018-08-24T05:33:23.798Z,97021.83
2018-08-24T05:35:51.525Z,97027.24
2018-08-24T05:38:19.345Z,97023.77
2018-08-24T05:40:46.971Z,97023.77
2018-08-24T05:43:14.626Z,97023.54
2018-08-24T05:45:42.245Z,97028.03
2018-08-24T05:48:09.890Z,97025.48
2018-08-24T05:50:37.516Z,97033.26
2018-08-24T05:53:05.169Z,97033.81
2018-08-24T05:55:32.837Z,97030.31
2018-08-24T05:58:00.510Z,97027.20
2018-08-24T06:00:33.298Z,97034.18
2018-08-24T06:03:00.988Z,97036.33
2018-08-24T06:05:28.638Z,97030.27
2018-08-24T06:07:56.281Z,97029.55
2018-08-24T06:10:23.909Z,97030.67
2018-08-24T06:12:51.632Z,97032.27
2018-08-24T06:15:19.257Z,97037.09
2018-08-24T06:17:50.542Z,97031.11
2018-08-24T06:20:18.606Z,97030.11
2018-08-24T06:22:46.351Z,97029.32
2018-08-24T06:25:14.747Z,97033.39
2018-08-24T06:27:42.722Z,97037.09
2018-08-24T06:30:10.918Z,97038.67
2018-08-24T06:32:38.957Z,97040.03
2018-08-24T06:35:07.027Z,97044.45
2018-08-24T06:37:34.758Z,97049.97
2018-08-24T06:40:02.390Z,97061.38
2018-08-24T06:42:30.309Z,97065.31
2018-08-24T06:44:57.998Z,97070.09
2018-08-24T06:47:25.659Z,97071.28
2018-08-24T06:49:53.319Z,97079.85
2018-08-24T06:52:20.948Z,97079.11
2018-08-24T06:54:48.630Z,97085.27
2018-08-24T06:57:16.405Z,97095.39
2018-08-24T06:59:44.139Z,97097.16
2018-08-24T07:02:12.553Z,97099.50
2018-08-24T07:04:40.191Z,97104.36
2018-08-24T07:07:07.919Z,97114.05
2018-08-24T07:09:38.084Z,97122.98
2018-08-24T07:12:06.566Z,97116.20
2018-08-24T07:14:34.314Z,97122.98
2018-08-24T07:17:01.986Z,97118.13
2018-08-24T07:19:30.581Z,97122.19
2018-08-24T07:21:58.549Z,97119.70
2018-08-24T07:24:26.725Z,97113.49
2018-08-24T07:26:54.684Z,97112.14
2018-08-24T07:29:22.372Z,97110.78
2018-08-24T07:31:50.038Z,97106.36
2018-08-24T07:34:17.703Z,97107.91
2018-08-24T07:36:45.365Z,97104.28
2018-08-24T07:39:14.339Z,97098.66
2018-08-24T07:41:42.408Z,97104.08
2018-08-24T07:44:10.794Z,97103.29
2018-08-24T07:46:38.565Z,97106.80
2018-08-24T07:49:07.089Z,97110.86
2018-08-24T07:51:34.963Z,97115.48
2018-08-24T07:54:02.607Z,97117.41
2018-08-24T07:56:30.729Z,97114.48
2018-08-24T07:58:59.535Z,97110.42
2018-08-24T08:01:28.087Z,97112.93
2018-08-24T08:03:55.909Z,97106.72
2018-08-24T08:06:23.539Z,97099.94
2018-08-24T08:08:51.307Z,97102.09
2018-08-24T08:11:18.959Z,97102.09
2018-08-24T08:13:46.621Z,97100.14
2018-08-24T08:16:14.332Z,97100.94
2018-08-24T08:18:42.047Z,97103.65
2018-08-24T08:21:09.620Z,97105.80
2018-08-24T08:23:37.610Z,97106.80
2018-08-24T08:26:05.250Z,97109.27
2018-08-24T08:28:32.875Z,97120.11
2018-08-24T08:31:00.503Z,97114.28
2018-08-24T08:33:28.200Z,97117.77
2018-08-24T08:35:55.849Z,97113.49
2018-08-24T08:38:23.566Z,97115.64
2018-08-24T08:40:51.225Z,97121.63
2018-08-24T08:43:18.966Z,97122.19
2018-08-24T08:45:46.976Z,97121.63
2018-08-24T08:48:14.619Z,97119.47
2018-08-24T08:50:42.332Z,97114.64
2018-08-24T08:53:09.944Z,97111.34
2018-08-24T08:55:38.467Z,97114.84
2018-08-24T08:58:06.124Z,97115.41
2018-08-24T09:00:33.757Z,97109.27
2018-08-24T09:03:01.509Z,97099.30
2018-08-24T09:05:29.133Z,97097.91
2018-08-24T09:07:56.754Z,97106.75
2018-08-24T09:10:24.477Z,97106.47
2018-08-24T09:12:52.165Z,97109.11
2018-08-24T09:15:19.773Z,97120.87
2018-08-24T09:17:52.637Z,97118.16
2018-08-24T09:20:25.469Z,97116.41
2018-08-24T09:22:58.569Z,97120.83
2018-08-24T09:25:31.650Z,97126.25
2018-08-24T09:28:04.803Z,97129.31
2018-08-24T09:30:36.574Z,97124.45
2018-08-24T09:33:04.207Z,97123.10
2018-08-24T09:35:31.901Z,97123.90
2018-08-24T09:37:59.571Z,97119.83
2018-08-24T09:40:32.610Z,97123.90
2018-08-24T09:43:04.478Z,97122.34
2018-08-24T09:45:32.660Z,97130.23
2018-08-24T09:48:05.567Z,97121.34
2018-08-24T09:50:38.516Z,97119.75
2018-08-24T09:53:11.576Z,97129.23
2018-08-24T09:55:39.230Z,97136.02
2018-08-24T09:58:06.882Z,97131.55
2018-08-24T10:00:39.794Z,97135.37
2018-08-24T10:03:12.857Z,97134.61
2018-08-24T10:05:45.866Z,97141.59
2018-08-24T10:08:18.950Z,97135.97
2018-08-24T10:10:46.589Z,97134.02
2018-08-24T10:13:14.251Z,97134.81
2018-08-24T10:15:41.876Z,97137.32
2018-08-24T10:18:09.488Z,97135.17
2018-08-24T10:20:37.117Z,97140.03
2018-08-24T10:23:04.785Z,97137.88
2018-08-24T10:25:32.403Z,97131.47
2018-08-24T10:28:00.074Z,97133.38
2018-08-24T10:30:27.697Z,97128.95
2018-08-24T10:32:55.345Z,97134.73
2018-08-24T10:35:23.042Z,97131.47
2018-08-24T10:37:50.669Z,97132.02
2018-08-24T10:40:18.289Z,97127.96
2018-08-24T10:42:45.921Z,97120.83
2018-08-24T10:45:13.569Z,97112.30
2018-08-24T10:47:41.234Z,97108.43
2018-08-24T10:50:08.874Z,97100.30
2018-08-24T10:52:36.480Z,97093.53
2018-08-24T10:55:04.099Z,97080.77
2018-08-24T10:57:31.740Z,97074.76
2018-08-24T10:59:59.367Z,97067.42
2018-08-24T11:02:26.989Z,97061.08
2018-08-24T11:04:54.598Z,97053.52
2018-08-24T11:07:22.413Z,97048.30
2018-08-24T11:09:49.968Z,97049.64
2018-08-24T11:12:17.753Z,97053.35
2018-08-24T11:14:45.441Z,97046.38
2018-08-24T11:17:13.065Z,97045.22
2018-08-24T11:19:40.689Z,97056.86
2018-08-24T11:22:08.313Z,97052.59
2018-08-24T11:24:35.949Z,97058.21
2018-08-24T11:27:03.566Z,97060.92
2018-08-24T11:29:31.202Z,97062.91
2018-08-24T11:31:58.821Z,97062.75
2018-08-24T11:34:26.490Z,97050.78
2018-08-24T11:36:54.112Z,97051.19
2018-08-24T11:39:21.724Z,97050.27
2018-08-24T11:41:49.419Z,97048.32
2018-08-24T11:44:17.025Z,97047.75
2018-08-24T11:46:44.658Z,97035.56
2018-08-24T11:49:12.282Z,97032.28
2018-08-24T11:51:39.912Z,97033.05
2018-08-24T11:54:07.580Z,97034.41
2018-08-24T11:56:35.201Z,97035.76
2018-08-24T11:59:02.829Z,97034.41
2018-08-24T12:01:30.479Z,97034.20
2018-08-24T12:03:58.118Z,97040.82
2018-08-24T12:06:25.785Z,97027.70
2018-08-24T12:08:53.406Z,97032.39
2018-08-24T12:11:21.038Z,97033.19
2018-08-24T12:13:48.669Z,97027.34
2018-08-24T12:16:16.324Z,97029.25
2018-08-24T12:18:44.005Z,97027.97
2018-08-24T12:21:11.654Z,97025.09
2018-08-24T12:23:39.280Z,97025.72
2018-08-24T12:26:06.962Z,97018.38
2018-08-24T12:28:34.605Z,97009.81
2018-08-24T12:31:02.302Z,97015.83
2018-08-24T12:33:29.886Z,97013.13
2018-08-24T12:35:57.553Z,97011.17
2018-08-24T12:38:25.226Z,97016.03
2018-08-24T12:40:52.869Z,97008.69
2018-08-24T12:43:20.504Z,97015.11
2018-08-24T12:45:48.139Z,97010.05
2018-08-24T12:48:15.766Z,97001.69
2018-08-24T12:50:43.410Z,97000.56
2018-08-24T12:53:11.033Z,96993.55
2018-08-24T12:55:38.649Z,96989.71
2018-08-24T12:58:06.302Z,96994.14
2018-08-24T13:00:33.928Z,96991.00
2018-08-24T13:03:01.559Z,97005.48
2018-08-24T13:05:29.188Z,97068.99
2018-08-24T13:07:56.817Z,97107.31
2018-08-24T13:10:24.433Z,97083.27
2018-08-24T13:12:52.624Z,97047.59
2018-08-24T13:15:20.251Z,97015.66
2018-08-24T13:17:47.921Z,97016.78
2018-08-24T13:20:15.560Z,97023.00
2018-08-24T13:22:43.243Z,97029.22
2018-08-24T13:25:10.865Z,97050.67
2018-08-24T13:27:38.517Z,97034.77
2018-08-24T13:30:06.147Z,97027.98
2018-08-24T13:32:33.786Z,97023.92
2018-08-24T13:35:01.404Z,97013.44
2018-08-24T13:37:29.041Z,97005.31
2018-08-24T13:39:56.676Z,97006.66
2018-08-24T13:42:24.294Z,97014.80
2018-08-24T13:44:51.978Z,97016.16
2018-08-24T13:47:19.637Z,97006.27
2018-08-24T13:49:47.261Z,96994.06
2018-08-24T13:52:14.898Z,96988.84
2018-08-24T13:54:42.548Z,96994.27
2018-08-24T13:57:10.165Z,96992.55
2018-08-24T13:59:37.822Z,96984.62
2018-08-24T14:02:05.463Z,96986.56
2018-08-24T14:04:33.092Z,96996.25
2018-08-24T14:07:00.713Z,97007.66
2018-08-24T14:09:28.329Z,97017.58
2018-08-24T14:11:55.972Z,97016.22
2018-08-24T14:14:23.613Z,97022.44
2018-08-24T14:16:51.244Z,97016.42
2018-08-24T14:19:18.889Z,97014.94
2018-08-24T14:21:46.529Z,97025.78
2018-08-24T14:24:14.182Z,97028.48
2018-08-24T14:26:42.099Z,97023.06
2018-08-24T14:29:09.710Z,97023.63
2018-08-24T14:31:37.436Z,97017.41
2018-08-24T14:34:05.045Z,97023.43
2018-08-24T14:36:32.673Z,97030.20
2018-08-24T14:39:00.292Z,97023.63
2018-08-24T14:41:27.925Z,96910.20
2018-08-24T14:43:55.642Z,97047.83
2018-08-24T14:46:23.297Z,97053.97
2018-08-24T14:48:50.932Z,97061.11
2018-08-24T14:51:18.554Z,97067.89
2018-08-24T14:53:46.193Z,97005.11
2018-08-24T14:56:13.819Z,97002.96
2018-08-24T14:58:41.450Z,97011.52
2018-08-24T15:01:09.129Z,97025.51
2018-08-24T15:03:36.800Z,97041.97
2018-08-24T15:06:04.440Z,97050.31
2018-08-24T15:08:32.078Z,97043.41
2018-08-24T15:10:59.720Z,97036.63
2018-08-24T15:13:27.347Z,97036.39
2018-08-24T15:15:55.010Z,97032.92
2018-08-24T15:18:22.616Z,97033.12
2018-08-24T15:20:50.242Z,97035.03
2018-08-24T15:23:17.889Z,97035.40
2018-08-24T15:25:45.558Z,97043.53
2018-08-24T15:28:13.219Z,97042.17
2018-08-24T15:30:40.880Z,97040.62
2018-08-24T15:33:08.522Z,97037.70
2018-08-24T15:35:36.175Z,97038.83
2018-08-24T15:38:03.815Z,97036.35
2018-08-24T15:40:31.442Z,97029.34
2018-08-24T15:42:59.110Z,97027.98
2018-08-24T15:45:26.750Z,97021.80
2018-08-24T15:47:54.368Z,97021.01
2018-08-24T15:50:21.999Z,97019.66
2018-08-24T15:52:49.650Z,97015.59
2018-08-24T15:55:17.374Z,97012.31
2018-08-24T15:57:45.046Z,97013.52
2018-08-24T16:00:12.705Z,97007.53
2018-08-24T16:02:40.334Z,97012.95
2018-08-24T16:05:07.945Z,97012.16
2018-08-24T16:07:39.073Z,97018.37
2018-08-24T16:10:07.422Z,97021.28
2018-08-24T16:12:35.309Z,97027.06
2018-08-24T16:15:02.946Z,97020.84
2018-08-24T16:17:30.567Z,97027.06
2018-08-24T16:19:58.234Z,97020.09
2018-08-24T16:22:25.891Z,97031.69
2018-08-24T16:24:53.536Z,97028.78
2018-08-24T16:27:24.172Z,97026.44
2018-08-24T16:29:52.962Z,97023.72
2018-08-24T16:32:20.738Z,97025.64
2018-08-24T16:34:48.390Z,97033.77
2018-08-24T16:37:16.074Z,97047.92
2018-08-24T16:39:43.709Z,97054.46
2018-08-24T16:42:11.333Z,97053.90
2018-08-24T16:44:39.030Z,97059.32
2018-08-24T16:47:06.686Z,97063.75
2018-08-24T16:49:34.339Z,97057.56
2018-08-24T16:52:02.094Z,97056.20
2018-08-24T16:54:30.087Z,97057.56
2018-08-24T16:56:57.745Z,97066.26
2018-08-24T16:59:25.589Z,97066.05
2018-08-24T17:01:53.221Z,97063.91
2018-08-24T17:04:20.882Z,97059.05
2018-08-24T17:06:48.530Z,97056.92
2018-08-24T17:09:16.191Z,97058.48
2018-08-24T17:11:43.829Z,97056.70
2018-08-24T17:14:11.469Z,97056.14
2018-08-24T17:16:39.106Z,97067.54
2018-08-24T17:19:06.750Z,97078.61
2018-08-24T17:21:34.387Z,97079.17
2018-08-24T17:24:02.010Z,97088.66
2018-08-24T17:26:29.670Z,97088.66
2018-08-24T17:28:57.301Z,97083.80
2018-08-24T17:31:24.954Z,97076.27
2018-08-24T17:33:52.606Z,97078.18
2018-08-24T17:36:20.270Z,97069.25
2018-08-24T17:38:47.914Z,97068.48
2018-08-24T17:41:15.553Z,97059.77
2018-08-24T17:43:43.215Z,97065.55
2018-08-24T17:46:10.874Z,97076.19
2018-08-24T17:48:38.515Z,97078.10
2018-08-24T17:51:06.146Z,97079.46
2018-08-24T17:53:33.782Z,97077.34
2018-08-24T17:56:01.594Z,97075.19
2018-08-24T17:58:29.205Z,97086.39
2018-08-24T18:00:56.862Z,97088.54
2018-08-24T18:03:24.502Z,97088.54
2018-08-24T18:05:52.171Z,97095.67
2018-08-24T18:08:19.810Z,97097.80
2018-08-24T18:10:47.450Z,97090.81
2018-08-24T18:13:15.068Z,97104.36
2018-08-24T18:15:42.702Z,97101.58
2018-08-24T18:18:10.339Z,97106.88
2018-08-24T18:20:37.998Z,97110.70
2018-08-24T18:23:05.636Z,97102.38
2018-08-24T18:25:33.454Z,97108.95
2018-08-24T18:28:01.076Z,97110.50
2018-08-24T18:30:28.755Z,97106.23
2018-08-24T18:32:56.386Z,97112.42
2018-08-24T18:35:24.013Z,97101.38
2018-08-24T18:37:51.643Z,97099.23
2018-08-24T18:40:19.285Z,97108.71
2018-08-24T18:42:46.934Z,97111.42
2018-08-24T18:45:14.565Z,97112.57
2018-08-24T18:47:42.237Z,97112.37
2018-08-24T18:50:09.866Z,97108.51
2018-08-24T18:52:37.597Z,97101.53
2018-08-24T18:55:05.621Z,97110.22
2018-08-24T18:57:33.270Z,97111.02
2018-08-24T19:00:00.918Z,97101.30
2018-08-24T19:02:28.542Z,97095.88
2018-08-24T19:04:56.172Z,97103.02
2018-08-24T19:07:23.816Z,97108.66
2018-08-24T19:09:51.654Z,97109.78
2018-08-24T19:12:24.510Z,97116.56
2018-08-24T19:14:52.149Z,97128.75
2018-08-24T19:17:25.034Z,97145.02
2018-08-24T19:19:58.012Z,97135.22
2018-08-24T19:22:25.628Z,97127.98
2018-08-24T19:24:53.292Z,97126.41
2018-08-24T19:27:20.938Z,97137.03
2018-08-24T19:29:53.990Z,97141.89
2018-08-24T19:32:21.620Z,97145.69
2018-08-24T19:34:49.269Z,97154.09
2018-08-24T19:37:16.889Z,97157.89
2018-08-24T19:39:49.837Z,97156.00
2018-08-24T19:42:24.409Z,97156.33
2018-08-24T19:44:52.228Z,97150.34
2018-08-24T19:47:25.349Z,97147.64
2018-08-24T19:49:52.992Z,97146.84
2018-08-24T19:52:20.633Z,97140.42
2018-08-24T19:54:48.261Z,97139.87
2018-08-24T19:57:21.391Z,97139.87
2018-08-24T19:59:49.009Z,97137.72
2018-08-24T20:02:16.653Z,97140.42
2018-08-24T20:04:44.287Z,97142.94
2018-08-24T20:07:17.353Z,97151.63
2018-08-24T20:09:50.281Z,97154.33
2018-08-24T20:12:17.920Z,97146.56
2018-08-24T20:14:50.976Z,97147.91
2018-08-24T20:17:23.859Z,97151.42
2018-08-24T20:19:51.489Z,97141.73
2018-08-24T20:22:19.124Z,97150.63
2018-08-24T20:24:46.750Z,97171.53
2018-08-24T20:27:14.397Z,97178.31
2018-08-24T20:29:42.045Z,97168.59
2018-08-24T20:32:09.716Z,97163.97
2018-08-24T20:34:37.361Z,97166.47
2018-08-24T20:37:05.030Z,97182.73
2018-08-24T20:39:32.658Z,97178.87
2018-08-24T20:42:00.310Z,97167.83
2018-08-24T20:44:27.935Z,97177.87
2018-08-24T20:46:55.552Z,97173.24
2018-08-24T20:49:23.308Z,97174.95
2018-08-24T20:51:50.934Z,97166.03
2018-08-24T20:54:18.584Z,97165.23
2018-08-24T20:56:46.249Z,97189.86
2018-08-24T20:59:13.892Z,97193.12
2018-08-24T21:01:41.561Z,97182.64
2018-08-24T21:04:09.249Z,97188.86
2018-08-24T21:06:37.005Z,97194.03
2018-08-24T21:09:06.481Z,97205.11
2018-08-24T21:11:34.131Z,97208.17
2018-08-24T21:14:01.824Z,97208.94
2018-08-24T21:16:29.458Z,97206.47
2018-08-24T21:18:57.149Z,97207.02
2018-08-24T21:21:24.778Z,97203.52
2018-08-24T21:23:52.424Z,97201.41
2018-08-24T21:26:20.390Z,97200.05
2018-08-24T21:28:48.026Z,97197.34
2018-08-24T21:31:15.662Z,97192.48
2018-08-24T21:33:43.329Z,97191.13
2018-08-24T21:36:10.961Z,97192.27
2018-08-24T21:38:38.590Z,97202.52
2018-08-24T21:41:06.277Z,97199.95
2018-08-24T21:43:33.908Z,97199.95
2018-08-24T21:46:01.551Z,97193.75
2018-08-24T21:48:29.177Z,97204.37
2018-08-24T21:50:56.788Z,97205.38
2018-08-24T21:53:24.441Z,97202.11
2018-08-24T21:55:52.113Z,97202.67
2018-08-24T21:58:19.778Z,97198.95
2018-08-24T22:00:47.406Z,97193.34
2018-08-24T22:03:15.043Z,97192.75
2018-08-24T22:05:42.916Z,97196.81
2018-08-24T22:08:10.545Z,97194.69
2018-08-24T22:10:38.193Z,97196.60
2018-08-24T22:13:05.813Z,97195.81
2018-08-24T22:15:33.605Z,97205.30
2018-08-24T22:18:01.714Z,97205.30
2018-08-24T22:20:29.326Z,97202.94
2018-08-24T22:22:57.021Z,97202.94
2018-08-24T22:25:24.742Z,97208.35
2018-08-24T22:27:52.365Z,97208.35
2018-08-24T22:30:20.008Z,97206.23
2018-08-24T22:32:47.713Z,97207.00
2018-08-24T22:35:15.331Z,97197.88
2018-08-24T22:37:42.974Z,97197.31
2018-08-24T22:40:10.617Z,97190.34
2018-08-24T22:42:38.801Z,97183.56
2018-08-24T22:45:06.459Z,97182.42
2018-08-24T22:47:34.101Z,97184.92
2018-08-24T22:50:01.814Z,97181.21
2018-08-24T22:52:29.429Z,97190.69
2018-08-24T22:54:57.047Z,97180.63
2018-08-24T22:57:24.669Z,97177.70
2018-08-24T22:59:52.285Z,97176.35
2018-08-24T23:02:19.918Z,97177.15
2018-08-24T23:04:47.541Z,97178.27
2018-08-24T23:07:15.177Z,97180.21
2018-08-24T23:09:42.825Z,97181.56
2018-08-24T23:12:10.441Z,97181.92
2018-08-24T23:14:38.109Z,97186.75
2018-08-24T23:17:05.733Z,97185.39
2018-08-24T23:19:33.369Z,97185.75
2018-08-24T23:22:01.102Z,97183.03
2018-08-24T23:24:28.706Z,97180.33
2018-08-24T23:26:56.341Z,97181.13
2018-08-24T23:29:23.961Z,97178.77
2018-08-24T23:31:51.605Z,97182.03
2018-08-24T23:34:19.224Z,97182.63
2018-08-24T23:36:46.862Z,97183.75
2018-08-24T23:39:14.485Z,97181.27
2018-08-24T23:41:42.141Z,97186.69
2018-08-24T23:44:10.016Z,97179.92
2018-08-24T23:46:37.643Z,97179.13
2018-08-24T23:49:05.405Z,97173.50
2018-08-24T23:51:33.026Z,97173.50
2018-08-24T23:54:00.651Z,97178.92
2018-08-24T23:56:28.315Z,97180.48
2018-08-24T23:58:55.946Z,97172.70
